sensor_id;sensor_type;location;lat;lon;timestamp;temperature;humidity
36424;DHT22;22458;45.328;9.514;2023-03-11T00:00:18;13.50;59.50
36424;DHT22;22458;45.328;9.514;2023-03-11T00:02:45;13.50;59.50
36424;DHT22;22458;45.328;9.514;2023-03-11T00:05:19;13.50;59.60
36424;DHT22;22458;45.328;9.514;2023-03-11T00:07:46;13.60;59.60
36424;DHT22;22458;45.328;9.514;2023-03-11T00:10:18;13.60;59.50
36424;DHT22;22458;45.328;9.514;2023-03-11T00:12:44;13.60;59.30
36424;DHT22;22458;45.328;9.514;2023-03-11T00:15:11;13.60;59.90
36424;DHT22;22458;45.328;9.514;2023-03-11T00:17:37;13.60;59.20
36424;DHT22;22458;45.328;9.514;2023-03-11T00:20:04;13.70;59.10
36424;DHT22;22458;45.328;9.514;2023-03-11T00:22:31;13.70;59.00
36424;DHT22;22458;45.328;9.514;2023-03-11T00:24:57;13.70;58.90
36424;DHT22;22458;45.328;9.514;2023-03-11T00:27:23;13.70;58.70
36424;DHT22;22458;45.328;9.514;2023-03-11T00:29:49;13.70;58.70
36424;DHT22;22458;45.328;9.514;2023-03-11T00:32:15;13.80;58.70
36424;DHT22;22458;45.328;9.514;2023-03-11T00:34:41;13.80;58.40
36424;DHT22;22458;45.328;9.514;2023-03-11T00:37:07;13.80;58.10
36424;DHT22;22458;45.328;9.514;2023-03-11T00:39:33;13.80;57.90
36424;DHT22;22458;45.328;9.514;2023-03-11T00:41:58;13.80;57.90
36424;DHT22;22458;45.328;9.514;2023-03-11T00:44:24;13.90;57.90
36424;DHT22;22458;45.328;9.514;2023-03-11T00:46:50;13.90;57.70
36424;DHT22;22458;45.328;9.514;2023-03-11T00:49:16;13.90;57.80
36424;DHT22;22458;45.328;9.514;2023-03-11T00:51:42;13.90;57.70
36424;DHT22;22458;45.328;9.514;2023-03-11T00:54:09;13.90;57.90
36424;DHT22;22458;45.328;9.514;2023-03-11T00:56:35;13.80;57.90
36424;DHT22;22458;45.328;9.514;2023-03-11T00:59:01;13.80;58.00
36424;DHT22;22458;45.328;9.514;2023-03-11T01:01:27;13.70;58.00
36424;DHT22;22458;45.328;9.514;2023-03-11T01:03:53;13.70;58.10
36424;DHT22;22458;45.328;9.514;2023-03-11T01:06:18;13.70;58.10
36424;DHT22;22458;45.328;9.514;2023-03-11T01:08:44;13.70;58.10
36424;DHT22;22458;45.328;9.514;2023-03-11T01:11:10;13.70;58.60
36424;DHT22;22458;45.328;9.514;2023-03-11T01:13:37;13.60;57.90
36424;DHT22;22458;45.328;9.514;2023-03-11T01:16:03;13.60;57.90
36424;DHT22;22458;45.328;9.514;2023-03-11T01:18:29;13.60;58.00
36424;DHT22;22458;45.328;9.514;2023-03-11T01:20:55;13.60;58.00
36424;DHT22;22458;45.328;9.514;2023-03-11T01:23:21;13.60;57.80
36424;DHT22;22458;45.328;9.514;2023-03-11T01:25:47;13.60;57.80
36424;DHT22;22458;45.328;9.514;2023-03-11T01:28:13;13.50;57.80
36424;DHT22;22458;45.328;9.514;2023-03-11T01:30:40;13.50;57.90
36424;DHT22;22458;45.328;9.514;2023-03-11T01:33:08;13.60;57.90
36424;DHT22;22458;45.328;9.514;2023-03-11T01:35:38;13.50;58.00
36424;DHT22;22458;45.328;9.514;2023-03-11T01:38:04;13.50;58.00
36424;DHT22;22458;45.328;9.514;2023-03-11T01:40:35;13.50;58.10
36424;DHT22;22458;45.328;9.514;2023-03-11T01:43:37;13.50;58.10
36424;DHT22;22458;45.328;9.514;2023-03-11T01:48:22;13.50;58.20
36424;DHT22;22458;45.328;9.514;2023-03-11T01:50:49;13.40;58.10
36424;DHT22;22458;45.328;9.514;2023-03-11T01:53:16;13.40;58.20
36424;DHT22;22458;45.328;9.514;2023-03-11T01:55:44;13.40;58.20
36424;DHT22;22458;45.328;9.514;2023-03-11T01:58:15;13.40;58.10
36424;DHT22;22458;45.328;9.514;2023-03-11T02:00:43;13.40;58.00
36424;DHT22;22458;45.328;9.514;2023-03-11T02:03:14;13.40;58.00
36424;DHT22;22458;45.328;9.514;2023-03-11T02:05:42;13.40;57.90
36424;DHT22;22458;45.328;9.514;2023-03-11T02:08:09;13.40;58.00
36424;DHT22;22458;45.328;9.514;2023-03-11T02:10:37;13.50;58.10
36424;DHT22;22458;45.328;9.514;2023-03-11T02:13:03;13.40;58.00
36424;DHT22;22458;45.328;9.514;2023-03-11T02:15:30;13.40;58.10
36424;DHT22;22458;45.328;9.514;2023-03-11T02:17:57;13.40;58.20
36424;DHT22;22458;45.328;9.514;2023-03-11T02:20:49;13.40;58.40
36424;DHT22;22458;45.328;9.514;2023-03-11T02:23:17;13.30;58.30
36424;DHT22;22458;45.328;9.514;2023-03-11T02:25:55;13.30;58.40
36424;DHT22;22458;45.328;9.514;2023-03-11T02:28:23;13.20;58.40
36424;DHT22;22458;45.328;9.514;2023-03-11T02:30:51;13.20;58.50
36424;DHT22;22458;45.328;9.514;2023-03-11T02:33:18;13.30;58.50
36424;DHT22;22458;45.328;9.514;2023-03-11T02:35:46;13.20;58.50
36424;DHT22;22458;45.328;9.514;2023-03-11T02:38:11;13.20;58.60
36424;DHT22;22458;45.328;9.514;2023-03-11T02:40:46;13.10;58.70
36424;DHT22;22458;45.328;9.514;2023-03-11T02:43:19;13.10;58.90
36424;DHT22;22458;45.328;9.514;2023-03-11T02:45:47;13.10;59.00
36424;DHT22;22458;45.328;9.514;2023-03-11T02:48:15;13.00;58.90
36424;DHT22;22458;45.328;9.514;2023-03-11T02:50:42;13.00;59.00
36424;DHT22;22458;45.328;9.514;2023-03-11T02:53:09;13.00;59.00
36424;DHT22;22458;45.328;9.514;2023-03-11T02:55:35;13.00;59.00
36424;DHT22;22458;45.328;9.514;2023-03-11T02:58:01;13.00;59.00
36424;DHT22;22458;45.328;9.514;2023-03-11T03:00:26;13.00;59.00
36424;DHT22;22458;45.328;9.514;2023-03-11T03:03:00;13.00;59.10
36424;DHT22;22458;45.328;9.514;2023-03-11T03:05:27;13.00;59.10
36424;DHT22;22458;45.328;9.514;2023-03-11T03:07:56;13.00;59.10
36424;DHT22;22458;45.328;9.514;2023-03-11T03:10:23;12.90;59.20
36424;DHT22;22458;45.328;9.514;2023-03-11T03:12:49;13.00;59.30
36424;DHT22;22458;45.328;9.514;2023-03-11T03:15:15;12.90;59.30
36424;DHT22;22458;45.328;9.514;2023-03-11T03:17:42;13.00;59.30
36424;DHT22;22458;45.328;9.514;2023-03-11T03:20:08;13.00;59.30
36424;DHT22;22458;45.328;9.514;2023-03-11T03:22:39;13.00;59.20
36424;DHT22;22458;45.328;9.514;2023-03-11T03:25:05;13.00;59.20
36424;DHT22;22458;45.328;9.514;2023-03-11T03:27:33;13.00;59.30
36424;DHT22;22458;45.328;9.514;2023-03-11T03:29:59;13.00;59.30
36424;DHT22;22458;45.328;9.514;2023-03-11T03:32:25;13.00;59.40
36424;DHT22;22458;45.328;9.514;2023-03-11T03:34:51;12.90;59.40
36424;DHT22;22458;45.328;9.514;2023-03-11T03:37:25;12.90;59.50
36424;DHT22;22458;45.328;9.514;2023-03-11T03:39:53;12.90;59.70
36424;DHT22;22458;45.328;9.514;2023-03-11T03:42:19;12.80;59.80
36424;DHT22;22458;45.328;9.514;2023-03-11T03:44:45;12.80;60.00
36424;DHT22;22458;45.328;9.514;2023-03-11T03:47:11;12.80;60.00
36424;DHT22;22458;45.328;9.514;2023-03-11T03:49:37;12.80;60.10
36424;DHT22;22458;45.328;9.514;2023-03-11T03:52:05;12.80;60.20
36424;DHT22;22458;45.328;9.514;2023-03-11T03:54:31;12.80;60.10
36424;DHT22;22458;45.328;9.514;2023-03-11T03:56:57;12.80;60.30
36424;DHT22;22458;45.328;9.514;2023-03-11T03:59:23;12.80;60.40
36424;DHT22;22458;45.328;9.514;2023-03-11T04:01:53;12.80;60.50
36424;DHT22;22458;45.328;9.514;2023-03-11T04:04:21;12.80;60.50
36424;DHT22;22458;45.328;9.514;2023-03-11T04:06:47;12.70;60.70
36424;DHT22;22458;45.328;9.514;2023-03-11T04:09:13;12.70;61.00
36424;DHT22;22458;45.328;9.514;2023-03-11T04:11:39;12.60;61.10
36424;DHT22;22458;45.328;9.514;2023-03-11T04:14:06;12.60;61.40
36424;DHT22;22458;45.328;9.514;2023-03-11T04:16:36;12.50;61.60
36424;DHT22;22458;45.328;9.514;2023-03-11T04:19:08;12.40;61.70
36424;DHT22;22458;45.328;9.514;2023-03-11T04:21:34;12.40;62.00
36424;DHT22;22458;45.328;9.514;2023-03-11T04:24:01;12.40;62.10
36424;DHT22;22458;45.328;9.514;2023-03-11T04:26:31;12.40;62.10
36424;DHT22;22458;45.328;9.514;2023-03-11T04:28:57;12.50;62.10
36424;DHT22;22458;45.328;9.514;2023-03-11T04:31:25;12.50;62.20
36424;DHT22;22458;45.328;9.514;2023-03-11T04:33:51;12.40;62.30
36424;DHT22;22458;45.328;9.514;2023-03-11T04:36:17;12.40;62.30
36424;DHT22;22458;45.328;9.514;2023-03-11T04:38:43;12.40;62.30
36424;DHT22;22458;45.328;9.514;2023-03-11T04:41:11;12.40;62.20
36424;DHT22;22458;45.328;9.514;2023-03-11T04:43:39;12.40;62.40
36424;DHT22;22458;45.328;9.514;2023-03-11T04:46:04;12.40;62.50
36424;DHT22;22458;45.328;9.514;2023-03-11T04:48:31;12.40;62.50
36424;DHT22;22458;45.328;9.514;2023-03-11T04:50:57;12.40;62.50
36424;DHT22;22458;45.328;9.514;2023-03-11T04:53:24;12.30;62.60
36424;DHT22;22458;45.328;9.514;2023-03-11T04:55:50;12.30;62.80
36424;DHT22;22458;45.328;9.514;2023-03-11T04:58:19;12.20;62.90
36424;DHT22;22458;45.328;9.514;2023-03-11T05:00:46;12.20;63.10
36424;DHT22;22458;45.328;9.514;2023-03-11T05:03:13;12.20;63.20
36424;DHT22;22458;45.328;9.514;2023-03-11T05:05:39;12.20;63.40
36424;DHT22;22458;45.328;9.514;2023-03-11T05:08:05;12.10;63.40
36424;DHT22;22458;45.328;9.514;2023-03-11T05:10:32;12.00;63.60
36424;DHT22;22458;45.328;9.514;2023-03-11T05:13:02;12.10;63.80
36424;DHT22;22458;45.328;9.514;2023-03-11T05:15:32;12.00;63.80
36424;DHT22;22458;45.328;9.514;2023-03-11T05:18:00;11.90;64.00
36424;DHT22;22458;45.328;9.514;2023-03-11T05:20:27;11.90;64.20
36424;DHT22;22458;45.328;9.514;2023-03-11T05:22:53;11.80;64.40
36424;DHT22;22458;45.328;9.514;2023-03-11T05:25:19;11.80;64.60
36424;DHT22;22458;45.328;9.514;2023-03-11T05:27:45;11.70;65.00
36424;DHT22;22458;45.328;9.514;2023-03-11T05:30:12;11.60;65.30
36424;DHT22;22458;45.328;9.514;2023-03-11T05:32:41;11.60;65.50
36424;DHT22;22458;45.328;9.514;2023-03-11T05:35:07;11.50;65.60
36424;DHT22;22458;45.328;9.514;2023-03-11T05:37:33;11.50;65.70
36424;DHT22;22458;45.328;9.514;2023-03-11T05:40:02;11.60;65.60
36424;DHT22;22458;45.328;9.514;2023-03-11T05:42:32;11.60;65.50
36424;DHT22;22458;45.328;9.514;2023-03-11T05:44:58;11.70;65.50
36424;DHT22;22458;45.328;9.514;2023-03-11T05:47:25;11.70;65.20
36424;DHT22;22458;45.328;9.514;2023-03-11T05:49:51;11.80;65.10
36424;DHT22;22458;45.328;9.514;2023-03-11T05:52:18;11.90;65.20
36424;DHT22;22458;45.328;9.514;2023-03-11T05:54:47;11.90;65.20
36424;DHT22;22458;45.328;9.514;2023-03-11T05:57:15;11.80;65.20
36424;DHT22;22458;45.328;9.514;2023-03-11T05:59:41;11.80;65.40
36424;DHT22;22458;45.328;9.514;2023-03-11T06:02:06;11.70;65.50
36424;DHT22;22458;45.328;9.514;2023-03-11T06:04:33;11.70;65.60
36424;DHT22;22458;45.328;9.514;2023-03-11T06:07:00;11.70;65.80
36424;DHT22;22458;45.328;9.514;2023-03-11T06:09:29;11.70;65.90
36424;DHT22;22458;45.328;9.514;2023-03-11T06:11:56;11.70;66.00
36424;DHT22;22458;45.328;9.514;2023-03-11T06:14:26;11.80;66.10
36424;DHT22;22458;45.328;9.514;2023-03-11T06:16:57;11.80;66.10
36424;DHT22;22458;45.328;9.514;2023-03-11T06:19:24;11.80;66.10
36424;DHT22;22458;45.328;9.514;2023-03-11T06:21:51;11.80;66.60
36424;DHT22;22458;45.328;9.514;2023-03-11T06:24:17;11.80;66.00
36424;DHT22;22458;45.328;9.514;2023-03-11T06:26:43;11.80;66.00
36424;DHT22;22458;45.328;9.514;2023-03-11T06:29:13;11.80;66.10
36424;DHT22;22458;45.328;9.514;2023-03-11T06:31:40;11.80;66.10
36424;DHT22;22458;45.328;9.514;2023-03-11T06:34:10;11.80;66.20
36424;DHT22;22458;45.328;9.514;2023-03-11T06:36:36;11.80;66.10
36424;DHT22;22458;45.328;9.514;2023-03-11T06:39:02;11.90;66.10
36424;DHT22;22458;45.328;9.514;2023-03-11T06:41:31;12.00;66.00
36424;DHT22;22458;45.328;9.514;2023-03-11T06:43:57;12.10;66.00
36424;DHT22;22458;45.328;9.514;2023-03-11T06:46:24;12.20;65.80
36424;DHT22;22458;45.328;9.514;2023-03-11T06:48:53;12.20;65.60
36424;DHT22;22458;45.328;9.514;2023-03-11T06:51:20;12.30;65.50
36424;DHT22;22458;45.328;9.514;2023-03-11T06:53:51;12.40;65.40
36424;DHT22;22458;45.328;9.514;2023-03-11T06:56:20;12.50;65.40
36424;DHT22;22458;45.328;9.514;2023-03-11T06:58:50;12.50;65.30
36424;DHT22;22458;45.328;9.514;2023-03-11T07:01:21;12.60;65.40
36424;DHT22;22458;45.328;9.514;2023-03-11T07:03:48;12.60;65.20
36424;DHT22;22458;45.328;9.514;2023-03-11T07:06:20;12.70;65.20
36424;DHT22;22458;45.328;9.514;2023-03-11T07:08:48;12.70;65.10
36424;DHT22;22458;45.328;9.514;2023-03-11T07:11:25;12.80;65.10
36424;DHT22;22458;45.328;9.514;2023-03-11T07:13:55;12.90;65.00
36424;DHT22;22458;45.328;9.514;2023-03-11T07:16:24;13.00;64.90
36424;DHT22;22458;45.328;9.514;2023-03-11T07:18:55;13.10;64.70
36424;DHT22;22458;45.328;9.514;2023-03-11T07:21:23;13.20;64.60
36424;DHT22;22458;45.328;9.514;2023-03-11T07:23:59;13.40;64.50
36424;DHT22;22458;45.328;9.514;2023-03-11T07:26:28;13.50;64.30
36424;DHT22;22458;45.328;9.514;2023-03-11T07:28:55;13.60;64.00
36424;DHT22;22458;45.328;9.514;2023-03-11T07:31:27;13.60;63.80
36424;DHT22;22458;45.328;9.514;2023-03-11T07:33:53;13.60;63.80
36424;DHT22;22458;45.328;9.514;2023-03-11T07:36:20;13.70;63.70
36424;DHT22;22458;45.328;9.514;2023-03-11T07:38:47;13.80;63.60
36424;DHT22;22458;45.328;9.514;2023-03-11T07:41:14;13.90;63.60
36424;DHT22;22458;45.328;9.514;2023-03-11T07:43:41;14.00;63.60
36424;DHT22;22458;45.328;9.514;2023-03-11T07:46:13;14.10;63.30
36424;DHT22;22458;45.328;9.514;2023-03-11T07:48:48;14.20;62.90
36424;DHT22;22458;45.328;9.514;2023-03-11T07:51:20;14.30;62.70
36424;DHT22;22458;45.328;9.514;2023-03-11T07:53:47;14.50;62.40
36424;DHT22;22458;45.328;9.514;2023-03-11T07:56:15;14.60;62.30
36424;DHT22;22458;45.328;9.514;2023-03-11T07:58:42;14.70;62.10
36424;DHT22;22458;45.328;9.514;2023-03-11T08:01:11;14.80;61.90
36424;DHT22;22458;45.328;9.514;2023-03-11T08:03:37;14.90;61.90
36424;DHT22;22458;45.328;9.514;2023-03-11T08:06:15;15.00;61.20
36424;DHT22;22458;45.328;9.514;2023-03-11T08:08:41;15.20;60.80
36424;DHT22;22458;45.328;9.514;2023-03-11T08:11:08;15.30;60.40
36424;DHT22;22458;45.328;9.514;2023-03-11T08:13:34;15.30;60.00
36424;DHT22;22458;45.328;9.514;2023-03-11T08:16:02;15.40;59.70
36424;DHT22;22458;45.328;9.514;2023-03-11T08:18:29;15.50;59.60
36424;DHT22;22458;45.328;9.514;2023-03-11T08:20:56;15.70;59.70
36424;DHT22;22458;45.328;9.514;2023-03-11T08:23:21;15.80;59.60
36424;DHT22;22458;45.328;9.514;2023-03-11T08:25:47;15.90;59.70
36424;DHT22;22458;45.328;9.514;2023-03-11T08:28:13;16.10;59.50
36424;DHT22;22458;45.328;9.514;2023-03-11T08:30:39;16.10;59.20
36424;DHT22;22458;45.328;9.514;2023-03-11T08:33:04;16.20;59.00
36424;DHT22;22458;45.328;9.514;2023-03-11T08:35:31;16.30;58.00
36424;DHT22;22458;45.328;9.514;2023-03-11T08:37:57;16.40;57.60
36424;DHT22;22458;45.328;9.514;2023-03-11T08:40:23;16.40;57.00
36424;DHT22;22458;45.328;9.514;2023-03-11T08:42:49;16.50;56.70
36424;DHT22;22458;45.328;9.514;2023-03-11T08:45:14;16.50;56.90
36424;DHT22;22458;45.328;9.514;2023-03-11T08:47:41;16.70;57.20
36424;DHT22;22458;45.328;9.514;2023-03-11T08:50:12;16.80;56.70
36424;DHT22;22458;45.328;9.514;2023-03-11T08:52:38;16.90;56.70
36424;DHT22;22458;45.328;9.514;2023-03-11T08:55:04;16.90;56.20
36424;DHT22;22458;45.328;9.514;2023-03-11T08:57:31;16.90;56.00
36424;DHT22;22458;45.328;9.514;2023-03-11T08:59:57;17.00;56.50
36424;DHT22;22458;45.328;9.514;2023-03-11T09:02:24;17.10;56.20
36424;DHT22;22458;45.328;9.514;2023-03-11T09:04:50;17.20;56.00
36424;DHT22;22458;45.328;9.514;2023-03-11T09:07:15;17.20;55.40
36424;DHT22;22458;45.328;9.514;2023-03-11T09:09:41;17.40;55.20
36424;DHT22;22458;45.328;9.514;2023-03-11T09:12:08;17.50;54.70
36424;DHT22;22458;45.328;9.514;2023-03-11T09:14:34;17.60;54.80
36424;DHT22;22458;45.328;9.514;2023-03-11T09:17:02;17.70;54.60
36424;DHT22;22458;45.328;9.514;2023-03-11T09:19:28;17.70;53.90
36424;DHT22;22458;45.328;9.514;2023-03-11T09:21:54;17.80;53.90
36424;DHT22;22458;45.328;9.514;2023-03-11T09:24:19;17.90;53.70
36424;DHT22;22458;45.328;9.514;2023-03-11T09:26:45;18.00;54.10
36424;DHT22;22458;45.328;9.514;2023-03-11T09:29:11;18.10;53.50
36424;DHT22;22458;45.328;9.514;2023-03-11T09:31:36;18.10;53.40
36424;DHT22;22458;45.328;9.514;2023-03-11T09:34:03;18.20;53.20
36424;DHT22;22458;45.328;9.514;2023-03-11T09:36:28;18.30;53.30
36424;DHT22;22458;45.328;9.514;2023-03-11T09:38:54;18.50;53.50
36424;DHT22;22458;45.328;9.514;2023-03-11T09:41:37;18.60;52.80
36424;DHT22;22458;45.328;9.514;2023-03-11T09:47:01;18.60;52.10
36424;DHT22;22458;45.328;9.514;2023-03-11T09:52:14;18.70;52.30
36424;DHT22;22458;45.328;9.514;2023-03-11T09:54:49;18.80;52.30
36424;DHT22;22458;45.328;9.514;2023-03-11T09:57:36;18.90;50.90
36424;DHT22;22458;45.328;9.514;2023-03-11T10:00:04;18.90;51.10
36424;DHT22;22458;45.328;9.514;2023-03-11T10:02:38;18.90;51.10
36424;DHT22;22458;45.328;9.514;2023-03-11T10:05:14;19.10;51.90
36424;DHT22;22458;45.328;9.514;2023-03-11T10:07:51;19.20;51.40
36424;DHT22;22458;45.328;9.514;2023-03-11T10:10:18;19.30;50.40
36424;DHT22;22458;45.328;9.514;2023-03-11T10:13:02;19.50;51.20
36424;DHT22;22458;45.328;9.514;2023-03-11T10:15:41;19.90;51.40
36424;DHT22;22458;45.328;9.514;2023-03-11T10:18:34;20.30;50.20
36424;DHT22;22458;45.328;9.514;2023-03-11T10:23:55;20.60;49.90
36424;DHT22;22458;45.328;9.514;2023-03-11T10:26:34;20.70;50.00
36424;DHT22;22458;45.328;9.514;2023-03-11T10:31:43;20.80;49.50
36424;DHT22;22458;45.328;9.514;2023-03-11T10:37:28;21.00;49.50
36424;DHT22;22458;45.328;9.514;2023-03-11T10:40:06;21.00;49.60
36424;DHT22;22458;45.328;9.514;2023-03-11T10:42:34;21.00;49.20
36424;DHT22;22458;45.328;9.514;2023-03-11T10:45:00;21.00;49.30
36424;DHT22;22458;45.328;9.514;2023-03-11T10:47:28;21.00;49.30
36424;DHT22;22458;45.328;9.514;2023-03-11T10:49:54;21.00;49.00
36424;DHT22;22458;45.328;9.514;2023-03-11T10:52:19;21.00;48.80
36424;DHT22;22458;45.328;9.514;2023-03-11T10:54:47;21.10;48.60
36424;DHT22;22458;45.328;9.514;2023-03-11T10:57:34;21.20;48.10
36424;DHT22;22458;45.328;9.514;2023-03-11T11:00:06;21.20;48.10
36424;DHT22;22458;45.328;9.514;2023-03-11T11:02:52;21.30;47.90
36424;DHT22;22458;45.328;9.514;2023-03-11T11:05:31;21.30;47.90
36424;DHT22;22458;45.328;9.514;2023-03-11T11:10:33;21.70;48.00
36424;DHT22;22458;45.328;9.514;2023-03-11T11:13:21;21.70;47.70
36424;DHT22;22458;45.328;9.514;2023-03-11T11:16:05;21.80;47.50
36424;DHT22;22458;45.328;9.514;2023-03-11T11:18:41;21.80;47.30
36424;DHT22;22458;45.328;9.514;2023-03-11T11:21:33;21.90;47.30
36424;DHT22;22458;45.328;9.514;2023-03-11T11:26:33;22.00;47.10
36424;DHT22;22458;45.328;9.514;2023-03-11T11:31:46;22.00;46.40
36424;DHT22;22458;45.328;9.514;2023-03-11T11:34:33;22.10;46.60
36424;DHT22;22458;45.328;9.514;2023-03-11T11:37:04;22.20;46.30
36424;DHT22;22458;45.328;9.514;2023-03-11T11:39:45;22.30;46.40
36424;DHT22;22458;45.328;9.514;2023-03-11T11:42:17;22.50;46.10
36424;DHT22;22458;45.328;9.514;2023-03-11T11:44:47;22.50;45.10
36424;DHT22;22458;45.328;9.514;2023-03-11T11:49:57;22.60;45.30
36424;DHT22;22458;45.328;9.514;2023-03-11T11:52:30;22.60;44.90
36424;DHT22;22458;45.328;9.514;2023-03-11T11:55:19;22.70;44.90
36424;DHT22;22458;45.328;9.514;2023-03-11T11:57:46;22.70;44.60
36424;DHT22;22458;45.328;9.514;2023-03-11T12:00:33;22.80;44.10
36424;DHT22;22458;45.328;9.514;2023-03-11T12:06:29;22.80;43.70
36424;DHT22;22458;45.328;9.514;2023-03-11T12:09:21;22.90;43.40
36424;DHT22;22458;45.328;9.514;2023-03-11T12:17:34;23.20;43.50
36424;DHT22;22458;45.328;9.514;2023-03-11T12:20:26;23.30;42.80
36424;DHT22;22458;45.328;9.514;2023-03-11T12:23:57;23.40;42.60
36424;DHT22;22458;45.328;9.514;2023-03-11T12:26:13;23.40;41.90
36424;DHT22;22458;45.328;9.514;2023-03-11T12:29:10;23.50;41.60
36424;DHT22;22458;45.328;9.514;2023-03-11T12:31:39;23.60;41.20
36424;DHT22;22458;45.328;9.514;2023-03-11T12:34:09;23.60;41.40
36424;DHT22;22458;45.328;9.514;2023-03-11T12:36:39;23.70;41.50
36424;DHT22;22458;45.328;9.514;2023-03-11T12:39:27;23.80;41.40
36424;DHT22;22458;45.328;9.514;2023-03-11T12:44:39;23.80;41.50
36424;DHT22;22458;45.328;9.514;2023-03-11T12:49:42;24.10;40.70
36424;DHT22;22458;45.328;9.514;2023-03-11T13:08:43;24.10;39.70
36424;DHT22;22458;45.328;9.514;2023-03-11T13:14:09;24.20;39.50
36424;DHT22;22458;45.328;9.514;2023-03-11T13:16:38;24.20;38.60
36424;DHT22;22458;45.328;9.514;2023-03-11T13:21:56;24.00;38.60
36424;DHT22;22458;45.328;9.514;2023-03-11T13:35:23;24.40;39.00
36424;DHT22;22458;45.328;9.514;2023-03-11T13:40:43;24.20;39.20
36424;DHT22;22458;45.328;9.514;2023-03-11T13:43:16;24.20;39.00
36424;DHT22;22458;45.328;9.514;2023-03-11T13:46:05;24.20;38.90
36424;DHT22;22458;45.328;9.514;2023-03-11T13:48:39;24.10;39.00
36424;DHT22;22458;45.328;9.514;2023-03-11T13:51:21;24.10;39.60
36424;DHT22;22458;45.328;9.514;2023-03-11T13:54:13;24.20;39.80
36424;DHT22;22458;45.328;9.514;2023-03-11T13:56:48;24.20;39.80
36424;DHT22;22458;45.328;9.514;2023-03-11T13:59:27;24.20;39.30
36424;DHT22;22458;45.328;9.514;2023-03-11T14:04:32;24.30;39.90
36424;DHT22;22458;45.328;9.514;2023-03-11T14:06:59;24.40;39.70
36424;DHT22;22458;45.328;9.514;2023-03-11T14:09:27;24.40;39.50
36424;DHT22;22458;45.328;9.514;2023-03-11T14:11:53;24.40;39.00
36424;DHT22;22458;45.328;9.514;2023-03-11T14:17:14;24.20;39.00
36424;DHT22;22458;45.328;9.514;2023-03-11T14:19:41;24.30;39.60
36424;DHT22;22458;45.328;9.514;2023-03-11T14:22:08;24.30;39.90
36424;DHT22;22458;45.328;9.514;2023-03-11T14:24:34;24.40;40.10
36424;DHT22;22458;45.328;9.514;2023-03-11T14:27:06;24.40;39.70
36424;DHT22;22458;45.328;9.514;2023-03-11T14:29:39;24.40;39.80
36424;DHT22;22458;45.328;9.514;2023-03-11T14:32:28;24.40;39.10
36424;DHT22;22458;45.328;9.514;2023-03-11T14:34:55;24.30;39.10
36424;DHT22;22458;45.328;9.514;2023-03-11T14:37:32;24.30;39.10
36424;DHT22;22458;45.328;9.514;2023-03-11T14:39:58;24.50;39.90
36424;DHT22;22458;45.328;9.514;2023-03-11T14:42:25;24.70;39.30
36424;DHT22;22458;45.328;9.514;2023-03-11T14:45:02;24.70;39.20
36424;DHT22;22458;45.328;9.514;2023-03-11T14:50:34;24.70;38.90
36424;DHT22;22458;45.328;9.514;2023-03-11T14:56:18;24.70;39.80
36424;DHT22;22458;45.328;9.514;2023-03-11T14:59:05;24.70;40.10
36424;DHT22;22458;45.328;9.514;2023-03-11T15:01:38;24.70;40.20
36424;DHT22;22458;45.328;9.514;2023-03-11T15:04:32;24.80;40.20
36424;DHT22;22458;45.328;9.514;2023-03-11T15:06:59;24.70;40.00
36424;DHT22;22458;45.328;9.514;2023-03-11T15:09:27;24.70;40.60
36424;DHT22;22458;45.328;9.514;2023-03-11T15:14:23;25.30;40.00
36424;DHT22;22458;45.328;9.514;2023-03-11T15:16:51;25.80;39.80
36424;DHT22;22458;45.328;9.514;2023-03-11T15:21:52;26.10;38.30
36424;DHT22;22458;45.328;9.514;2023-03-11T15:24:24;26.00;38.60
36424;DHT22;22458;45.328;9.514;2023-03-11T15:27:03;26.00;38.90
36424;DHT22;22458;45.328;9.514;2023-03-11T15:29:31;25.90;39.00
36424;DHT22;22458;45.328;9.514;2023-03-11T15:31:58;25.60;38.80
36424;DHT22;22458;45.328;9.514;2023-03-11T15:36:57;25.40;39.50
36424;DHT22;22458;45.328;9.514;2023-03-11T15:44:37;26.20;39.40
36424;DHT22;22458;45.328;9.514;2023-03-11T15:47:13;26.90;38.80
36424;DHT22;22458;45.328;9.514;2023-03-11T15:49:39;27.50;38.10
36424;DHT22;22458;45.328;9.514;2023-03-11T15:52:06;27.50;37.60
36424;DHT22;22458;45.328;9.514;2023-03-11T15:54:31;27.20;37.70
36424;DHT22;22458;45.328;9.514;2023-03-11T15:56:58;27.00;37.60
36424;DHT22;22458;45.328;9.514;2023-03-11T15:59:28;27.00;38.10
36424;DHT22;22458;45.328;9.514;2023-03-11T16:01:54;27.20;37.70
36424;DHT22;22458;45.328;9.514;2023-03-11T16:04:21;27.50;37.60
36424;DHT22;22458;45.328;9.514;2023-03-11T16:06:47;27.50;37.40
36424;DHT22;22458;45.328;9.514;2023-03-11T16:09:14;27.50;37.60
36424;DHT22;22458;45.328;9.514;2023-03-11T16:11:40;27.30;37.60
36424;DHT22;22458;45.328;9.514;2023-03-11T16:14:13;26.90;37.70
36424;DHT22;22458;45.328;9.514;2023-03-11T16:16:40;26.50;38.00
36424;DHT22;22458;45.328;9.514;2023-03-11T16:19:06;26.00;38.70
36424;DHT22;22458;45.328;9.514;2023-03-11T16:21:35;25.70;39.00
36424;DHT22;22458;45.328;9.514;2023-03-11T16:24:03;25.30;39.50
36424;DHT22;22458;45.328;9.514;2023-03-11T16:26:29;25.00;39.80
36424;DHT22;22458;45.328;9.514;2023-03-11T16:28:55;24.80;40.20
36424;DHT22;22458;45.328;9.514;2023-03-11T16:31:21;24.70;40.50
36424;DHT22;22458;45.328;9.514;2023-03-11T16:33:47;24.70;40.80
36424;DHT22;22458;45.328;9.514;2023-03-11T16:36:13;24.50;41.20
36424;DHT22;22458;45.328;9.514;2023-03-11T16:38:47;24.30;41.40
36424;DHT22;22458;45.328;9.514;2023-03-11T16:41:14;24.20;41.70
36424;DHT22;22458;45.328;9.514;2023-03-11T16:43:40;23.90;41.80
36424;DHT22;22458;45.328;9.514;2023-03-11T16:46:06;23.80;42.20
36424;DHT22;22458;45.328;9.514;2023-03-11T16:48:32;23.70;42.30
36424;DHT22;22458;45.328;9.514;2023-03-11T16:50:58;23.60;42.60
36424;DHT22;22458;45.328;9.514;2023-03-11T16:53:24;23.40;42.80
36424;DHT22;22458;45.328;9.514;2023-03-11T16:55:51;23.40;43.10
36424;DHT22;22458;45.328;9.514;2023-03-11T16:58:17;23.40;43.30
36424;DHT22;22458;45.328;9.514;2023-03-11T17:00:43;23.30;43.40
36424;DHT22;22458;45.328;9.514;2023-03-11T17:03:13;23.20;43.60
36424;DHT22;22458;45.328;9.514;2023-03-11T17:05:40;23.10;43.80
36424;DHT22;22458;45.328;9.514;2023-03-11T17:08:06;23.00;44.00
36424;DHT22;22458;45.328;9.514;2023-03-11T17:10:40;22.90;44.20
36424;DHT22;22458;45.328;9.514;2023-03-11T17:13:07;22.80;44.50
36424;DHT22;22458;45.328;9.514;2023-03-11T17:15:33;22.60;44.80
36424;DHT22;22458;45.328;9.514;2023-03-11T17:18:00;22.60;44.90
36424;DHT22;22458;45.328;9.514;2023-03-11T17:20:26;22.50;45.10
36424;DHT22;22458;45.328;9.514;2023-03-11T17:22:52;22.40;45.30
36424;DHT22;22458;45.328;9.514;2023-03-11T17:25:18;22.40;45.50